Time;durP1;ratioP1;P1;durP2;ratioP2;P2;SDS_P1;SDS_P2;PMS_P1;PMS_P2;Temp;Humidity;BMP_temperature;BMP_pressure;BME280_temperature;BME280_humidity;BME280_pressure;Samples;Min_cycle;Max_cycle;Signal;HPM_P1;HPM_P2
2023/04/17 00:00:49;;;;;;;4.20;2.50;;;;;;;;;;4935662;29;20053;-71
2023/04/17 00:03:15;;;;;;;;;;;;;;;;;;4935782;29;20051;-72
2023/04/17 00:05:44;;;;;;;4.23;2.43;;;;;;;;;;4935171;29;19923;-72
2023/04/17 00:08:11;;;;;;;3.65;2.22;;;;;;;;;;4934223;29;20131;-72
2023/04/17 00:10:37;;;;;;;6.55;2.80;;;;;;;;;;4935419;29;20057;-71
2023/04/17 00:13:04;;;;;;;5.10;2.55;;;;;;;;;;4935541;29;20476;-72
2023/04/17 00:15:30;;;;;;;6.57;2.78;;;;;;;;;;4935342;29;20047;-72
2023/04/17 00:17:56;;;;;;;7.63;2.58;;;;;;;;;;4935213;29;20052;-71
2023/04/17 00:20:23;;;;;;;4.95;2.25;;;;;;;;;;4935017;29;20504;-72
2023/04/17 00:22:49;;;;;;;5.85;2.70;;;;;;;;;;4935280;29;20413;-72
2023/04/17 00:25:15;;;;;;;5.65;3.17;;;;;;;;;;4935323;29;20051;-72
2023/04/17 00:27:42;;;;;;;6.32;2.53;;;;;;;;;;4935161;29;20070;-72
2023/04/17 00:30:08;;;;;;;5.72;2.50;;;;;;;;;;4934991;29;20086;-72
2023/04/17 00:32:35;;;;;;;5.30;2.30;;;;;;;;;;4935091;29;20130;-72
2023/04/17 00:35:01;;;;;;;2.97;1.98;;;;;;;;;;4934967;29;20062;-72
2023/04/17 00:37:28;;;;;;;4.60;2.60;;;;;;;;;;4934772;29;20478;-72
2023/04/17 00:39:54;;;;;;;4.78;2.67;;;;;;;;;;4934177;29;20052;-72
2023/04/17 00:42:20;;;;;;;4.47;2.22;;;;;;;;;;4934730;29;20107;-72
2023/04/17 00:44:47;;;;;;;4.88;2.50;;;;;;;;;;4934643;29;20070;-72
2023/04/17 00:47:13;;;;;;;4.13;2.00;;;;;;;;;;4934613;29;20061;-72
2023/04/17 00:49:40;;;;;;;7.15;2.70;;;;;;;;;;4934772;29;20062;-72
2023/04/17 00:52:06;;;;;;;4.68;2.42;;;;;;;;;;4934845;29;20043;-72
2023/04/17 00:54:33;;;;;;;4.45;2.40;;;;;;;;;;4934837;29;20050;-72
2023/04/17 00:57:00;;;;;;;4.70;2.45;;;;;;;;;;4934879;29;20048;-72
2023/04/17 00:59:27;;;;;;;4.57;2.40;;;;;;;;;;4933304;29;20567;-72
2023/04/17 01:01:53;;;;;;;5.15;2.70;;;;;;;;;;4934751;29;20048;-72
2023/04/17 01:04:20;;;;;;;5.03;2.33;;;;;;;;;;4934652;29;20048;-72
2023/04/17 01:06:46;;;;;;;5.97;2.80;;;;;;;;;;4934263;29;20115;-72
2023/04/17 01:09:13;;;;;;;6.50;2.38;;;;;;;;;;4934806;29;20054;-72
2023/04/17 01:11:40;;;;;;;3.75;2.30;;;;;;;;;;4933176;29;20131;-72
2023/04/17 01:14:06;;;;;;;5.88;2.65;;;;;;;;;;4934647;29;20054;-72
2023/04/17 01:16:32;;;;;;;3.97;2.40;;;;;;;;;;4934932;29;20047;-72
2023/04/17 01:18:59;;;;;;;6.45;2.75;;;;;;;;;;4934460;29;20051;-72
2023/04/17 01:21:26;;;;;;;4.95;2.67;;;;;;;;;;4934595;29;20146;-72
2023/04/17 01:23:53;;;;;;;5.53;2.90;;;;;;;;;;4934362;29;20139;-72
2023/04/17 01:26:20;;;;;;;4.43;2.97;;;;;;;;;;4934435;29;20316;-72
2023/04/17 01:28:50;;;;;;;3.70;2.28;;;;;;;;;;4934201;29;20055;-72
2023/04/17 01:31:17;;;;;;;5.47;2.60;;;;;;;;;;4934129;29;20579;-72
2023/04/17 01:33:44;;;;;;;5.93;2.67;;;;;;;;;;4934417;29;20055;-72
2023/04/17 01:36:10;;;;;;;5.22;2.50;;;;;;;;;;4934359;29;20054;-72
2023/04/17 01:38:37;;;;;;;5.47;2.92;;;;;;;;;;4934173;29;20504;-72
2023/04/17 01:41:08;;;;;;;5.95;2.90;;;;;;;;;;4934472;29;20099;-71
2023/04/17 01:43:36;;;;;;;4.68;2.50;;;;;;;;;;4933180;29;20094;-71
2023/04/17 01:46:02;;;;;;;4.10;3.00;;;;;;;;;;4933998;29;20483;-72
2023/04/17 01:48:28;;;;;;;3.53;2.42;;;;;;;;;;4934302;29;20403;-72
2023/04/17 01:50:55;;;;;;;7.28;2.90;;;;;;;;;;4936475;29;20067;-72
2023/04/17 01:53:21;;;;;;;5.60;2.53;;;;;;;;;;4938104;29;20053;-71
2023/04/17 01:55:48;;;;;;;5.07;2.63;;;;;;;;;;4937679;29;20047;-72
2023/04/17 01:58:14;;;;;;;3.60;2.78;;;;;;;;;;4937915;29;20048;-71
2023/04/17 02:00:40;;;;;;;4.05;2.40;;;;;;;;;;4938080;29;20083;-71
2023/04/17 02:03:07;;;;;;;4.30;1.80;;;;;;;;;;4937797;29;20082;-72
2023/04/17 02:05:33;;;;;;;4.20;2.55;;;;;;;;;;4937554;29;20102;-71
2023/04/17 02:08:00;;;;;;;7.43;3.85;;;;;;;;;;4937692;29;20052;-72
2023/04/17 02:10:26;;;;;;;3.92;2.45;;;;;;;;;;4937280;29;20047;-72
2023/04/17 02:12:52;;;;;;;4.50;2.60;;;;;;;;;;4937464;29;20051;-72
2023/04/17 02:15:19;;;;;;;5.88;2.42;;;;;;;;;;4937627;29;20051;-72
2023/04/17 02:17:45;;;;;;;5.50;2.58;;;;;;;;;;4937546;29;20061;-72
2023/04/17 02:20:11;;;;;;;6.05;2.65;;;;;;;;;;4937626;29;20083;-72
2023/04/17 02:22:38;;;;;;;4.57;2.80;;;;;;;;;;4937485;29;20155;-72
2023/04/17 02:25:05;;;;;;;3.20;2.17;;;;;;;;;;4937315;29;20138;-72
2023/04/17 02:27:31;;;;;;;4.37;2.50;;;;;;;;;;4937057;29;20059;-72
2023/04/17 02:29:58;;;;;;;3.60;2.30;;;;;;;;;;4937114;29;20054;-72
2023/04/17 02:32:25;;;;;;;5.28;2.72;;;;;;;;;;4937372;29;20047;-72
2023/04/17 02:34:53;;;;;;;4.82;2.63;;;;;;;;;;4937247;29;20110;-72
2023/04/17 02:37:19;;;;;;;4.32;2.58;;;;;;;;;;4936607;29;20115;-72
2023/04/17 02:39:46;;;;;;;5.15;2.83;;;;;;;;;;4936997;29;20043;-72
2023/04/17 02:42:12;;;;;;;3.75;2.50;;;;;;;;;;4936774;29;20139;-72
2023/04/17 02:44:39;;;;;;;10.55;3.53;;;;;;;;;;4936668;29;20079;-72
2023/04/17 02:47:05;;;;;;;4.60;2.58;;;;;;;;;;4937088;29;20389;-72
2023/04/17 02:49:31;;;;;;;7.43;2.83;;;;;;;;;;4936912;29;20061;-72
2023/04/17 02:51:58;;;;;;;5.50;2.88;;;;;;;;;;4936804;29;20048;-72
2023/04/17 02:54:24;;;;;;;4.93;2.50;;;;;;;;;;4936601;29;20051;-72
2023/04/17 02:56:51;;;;;;;6.50;3.10;;;;;;;;;;4936582;29;20085;-72
2023/04/17 02:59:18;;;;;;;3.73;2.60;;;;;;;;;;4935461;29;20503;-72
2023/04/17 03:01:44;;;;;;;6.43;2.47;;;;;;;;;;4935833;29;20142;-72
2023/04/17 03:04:11;;;;;;;4.68;2.50;;;;;;;;;;4936563;29;20047;-72
2023/04/17 03:06:38;;;;;;;6.20;2.90;;;;;;;;;;4936346;29;20060;-72
2023/04/17 03:09:04;;;;;;;4.70;2.50;;;;;;;;;;4936366;29;20135;-72
2023/04/17 03:11:31;;;;;;;6.72;2.80;;;;;;;;;;4936202;29;20138;-72
2023/04/17 03:13:57;;;;;;;4.13;2.70;;;;;;;;;;4936286;29;20492;-71
2023/04/17 03:16:24;;;;;;;2.97;2.05;;;;;;;;;;4936572;29;20051;-72
2023/04/17 03:18:50;;;;;;;5.85;2.65;;;;;;;;;;4936152;29;20515;-71
2023/04/17 03:21:16;;;;;;;4.22;2.55;;;;;;;;;;4936194;29;20512;-72
2023/04/17 03:23:43;;;;;;;3.75;2.33;;;;;;;;;;4936176;29;20057;-72
2023/04/17 03:26:09;;;;;;;4.43;2.17;;;;;;;;;;4935990;29;20062;-71
2023/04/17 03:28:36;;;;;;;3.42;2.42;;;;;;;;;;4936230;29;20055;-71
2023/04/17 03:31:02;;;;;;;5.32;2.78;;;;;;;;;;4936356;29;20082;-72
2023/04/17 03:33:28;;;;;;;6.35;2.38;;;;;;;;;;4936091;29;20059;-72
2023/04/17 03:35:55;;;;;;;5.40;2.70;;;;;;;;;;4935929;29;20059;-71
2023/04/17 03:38:21;;;;;;;4.30;2.35;;;;;;;;;;4935894;29;20456;-72
2023/04/17 03:40:48;;;;;;;5.95;2.60;;;;;;;;;;4936029;29;20056;-71
2023/04/17 03:43:14;;;;;;;4.57;2.72;;;;;;;;;;4935958;29;20057;-71
2023/04/17 03:45:40;;;;;;;6.45;2.53;;;;;;;;;;4935643;29;20496;-71
2023/04/17 03:48:07;;;;;;;4.80;2.42;;;;;;;;;;4935587;29;20048;-71
2023/04/17 03:50:34;;;;;;;3.33;2.50;;;;;;;;;;4935757;29;20106;-72
2023/04/17 03:53:00;;;;;;;6.07;2.60;;;;;;;;;;4935838;29;20051;-71
2023/04/17 03:55:27;;;;;;;4.40;2.53;;;;;;;;;;4935482;29;20051;-72
2023/04/17 03:57:53;;;;;;;6.82;2.85;;;;;;;;;;4934318;29;20567;-72
2023/04/17 04:00:20;;;;;;;3.53;2.30;;;;;;;;;;4935634;29;20051;-71
2023/04/17 04:02:46;;;;;;;3.90;2.28;;;;;;;;;;4934127;29;20062;-72
2023/04/17 04:05:13;;;;;;;4.28;2.53;;;;;;;;;;4935306;29;20055;-72
2023/04/17 04:07:40;;;;;;;5.75;2.88;;;;;;;;;;4934386;29;20048;-72
2023/04/17 04:10:07;;;;;;;5.93;2.70;;;;;;;;;;4935425;29;20055;-72
2023/04/17 04:12:33;;;;;;;3.23;2.33;;;;;;;;;;4935612;29;20051;-71
2023/04/17 04:15:00;;;;;;;5.28;2.80;;;;;;;;;;4935243;29;20048;-72
2023/04/17 04:17:26;;;;;;;4.85;2.60;;;;;;;;;;4935196;29;20058;-72
2023/04/17 04:19:53;;;;;;;3.53;2.50;;;;;;;;;;4935083;29;20060;-71
2023/04/17 04:22:20;;;;;;;7.43;2.30;;;;;;;;;;4934960;29;20065;-71
2023/04/17 04:24:46;;;;;;;4.10;2.30;;;;;;;;;;4934124;29;20055;-72
2023/04/17 04:27:16;;;;;;;5.45;2.50;;;;;;;;;;4935021;29;20051;-71
2023/04/17 04:29:47;;;;;;;6.75;2.65;;;;;;;;;;4933978;29;20082;-72
2023/04/17 04:32:14;;;;;;;4.28;2.42;;;;;;;;;;4935006;29;20058;-71
2023/04/17 04:34:43;;;;;;;3.83;2.25;;;;;;;;;;4935127;29;20090;-72
2023/04/17 04:37:14;;;;;;;5.00;2.40;;;;;;;;;;4935026;29;20478;-71
2023/04/17 04:39:41;;;;;;;3.60;2.25;;;;;;;;;;4935121;29;20468;-71
2023/04/17 04:42:08;;;;;;;5.75;2.30;;;;;;;;;;4933666;29;20059;-72
2023/04/17 04:44:36;;;;;;;2.70;2.37;;;;;;;;;;4934724;29;20067;-71
2023/04/17 04:47:02;;;;;;;4.93;2.00;;;;;;;;;;4934771;29;20055;-72
2023/04/17 04:49:29;;;;;;;5.20;2.40;;;;;;;;;;4934493;29;20051;-71
2023/04/17 04:51:55;;;;;;;3.85;2.30;;;;;;;;;;4934855;29;20456;-71
2023/04/17 04:54:21;;;;;;;5.57;2.33;;;;;;;;;;4934759;29;20047;-71
2023/04/17 04:56:49;;;;;;;3.70;2.50;;;;;;;;;;4934764;29;20047;-71
2023/04/17 04:59:15;;;;;;;5.60;2.30;;;;;;;;;;4933639;29;20110;-72
2023/04/17 05:01:43;;;;;;;4.97;2.15;;;;;;;;;;4934491;29;20138;-72
2023/04/17 05:04:10;;;;;;;;;;;;;;;;;;4933933;29;20138;-71
2023/04/17 05:06:36;;;;;;;4.03;2.38;;;;;;;;;;4934226;29;19927;-71
2023/04/17 05:09:03;;;;;;;3.63;2.28;;;;;;;;;;4934329;29;20130;-71
2023/04/17 05:11:29;;;;;;;4.18;2.67;;;;;;;;;;4934436;29;20506;-72
2023/04/17 05:13:55;;;;;;;5.80;2.60;;;;;;;;;;4934510;29;20143;-71
2023/04/17 05:16:22;;;;;;;5.47;2.67;;;;;;;;;;4934539;29;20055;-71
2023/04/17 05:18:48;;;;;;;4.72;2.65;;;;;;;;;;4934460;29;20110;-71
2023/04/17 05:21:15;;;;;;;5.00;2.60;;;;;;;;;;4934334;29;20051;-71
2023/04/17 05:23:41;;;;;;;3.47;2.65;;;;;;;;;;4934370;29;20134;-71
2023/04/17 05:26:08;;;;;;;4.05;2.58;;;;;;;;;;4936949;29;20051;-72
2023/04/17 05:28:34;;;;;;;6.30;3.13;;;;;;;;;;4938122;29;20055;-71
2023/04/17 05:31:00;;;;;;;5.13;2.97;;;;;;;;;;4938113;29;20054;-72
2023/04/17 05:33:27;;;;;;;3.00;2.65;;;;;;;;;;4938349;29;20146;-71
2023/04/17 05:35:53;;;;;;;5.68;3.15;;;;;;;;;;4938309;29;20054;-72
2023/04/17 05:38:21;;;;;;;4.93;3.22;;;;;;;;;;4938052;29;20083;-71
2023/04/17 05:40:48;;;;;;;6.45;3.35;;;;;;;;;;4938017;29;20047;-71
2023/04/17 05:43:14;;;;;;;5.88;3.30;;;;;;;;;;4937951;29;20062;-72
2023/04/17 05:45:40;;;;;;;6.30;3.13;;;;;;;;;;4937791;29;20055;-72
2023/04/17 05:48:07;;;;;;;9.90;4.10;;;;;;;;;;4938126;29;20047;-72
2023/04/17 05:50:36;;;;;;;6.63;3.28;;;;;;;;;;4938019;29;20099;-72
2023/04/17 05:53:02;;;;;;;6.97;3.85;;;;;;;;;;4936522;29;20154;-71
2023/04/17 05:55:29;;;;;;;9.15;4.15;;;;;;;;;;4938179;29;20304;-72
2023/04/17 05:57:55;;;;;;;6.60;3.75;;;;;;;;;;4937610;29;20517;-72
2023/04/17 06:00:23;;;;;;;8.15;4.55;;;;;;;;;;4937616;29;20056;-72
2023/04/17 06:02:50;;;;;;;5.93;4.65;;;;;;;;;;4937584;29;20510;-72
2023/04/17 06:05:16;;;;;;;10.55;5.32;;;;;;;;;;4936299;29;20087;-71
2023/04/17 06:07:43;;;;;;;13.23;6.88;;;;;;;;;;4937324;29;20095;-70
2023/04/17 06:10:09;;;;;;;11.77;6.40;;;;;;;;;;4937345;29;20047;-71
2023/04/17 06:12:36;;;;;;;11.18;7.45;;;;;;;;;;4937462;29;20059;-71
2023/04/17 06:15:03;;;;;;;12.73;7.13;;;;;;;;;;4937293;29;20484;-71
2023/04/17 06:17:30;;;;;;;13.20;7.83;;;;;;;;;;4937516;29;20138;-72
2023/04/17 06:19:56;;;;;;;14.48;7.60;;;;;;;;;;4937650;29;20059;-71
2023/04/17 06:22:23;;;;;;;13.48;8.25;;;;;;;;;;4937276;29;20106;-72
2023/04/17 06:24:49;;;;;;;13.20;7.40;;;;;;;;;;4936647;29;20475;-72
2023/04/17 06:27:16;;;;;;;12.23;7.18;;;;;;;;;;4922284;29;20058;-71
2023/04/17 06:29:42;;;;;;;14.95;7.63;;;;;;;;;;4936082;29;20057;-71
2023/04/17 06:32:08;;;;;;;12.95;7.10;;;;;;;;;;4936716;29;20058;-71
2023/04/17 06:34:35;;;;;;;11.70;6.60;;;;;;;;;;4937362;29;20213;-71
2023/04/17 06:37:11;;;;;;;11.50;7.13;;;;;;;;;;4936013;29;20070;-71
2023/04/17 06:39:37;;;;;;;11.00;6.95;;;;;;;;;;4936953;29;20143;-71
2023/04/17 06:42:05;;;;;;;8.88;6.63;;;;;;;;;;4936870;29;20559;-72
2023/04/17 06:44:32;;;;;;;10.05;6.90;;;;;;;;;;4936829;29;20062;-71
2023/04/17 06:47:02;;;;;;;10.55;6.38;;;;;;;;;;4936887;29;20058;-71
2023/04/17 06:49:30;;;;;;;11.52;7.30;;;;;;;;;;4936519;29;20054;-72
2023/04/17 06:51:57;;;;;;;14.60;7.15;;;;;;;;;;4936678;29;20563;-71
2023/04/17 06:54:24;;;;;;;12.80;6.80;;;;;;;;;;4930410;29;20059;-72
2023/04/17 06:56:50;;;;;;;10.07;6.93;;;;;;;;;;4926551;29;20286;-71
2023/04/17 06:59:17;;;;;;;10.27;6.75;;;;;;;;;;4925636;29;20055;-71
2023/04/17 07:01:44;;;;;;;12.75;6.63;;;;;;;;;;4936476;29;20083;-72
2023/04/17 07:04:10;;;;;;;11.67;6.67;;;;;;;;;;4935540;29;20052;-71
2023/04/17 07:06:38;;;;;;;11.75;7.13;;;;;;;;;;4936413;29;20139;-71
2023/04/17 07:09:04;;;;;;;10.60;7.07;;;;;;;;;;4936635;29;20056;-71
2023/04/17 07:11:31;;;;;;;10.63;6.55;;;;;;;;;;4936700;29;20052;-71
2023/04/17 07:13:57;;;;;;;13.13;7.10;;;;;;;;;;4936316;29;20814;-72
2023/04/17 07:16:24;;;;;;;11.90;6.60;;;;;;;;;;4936340;29;20138;-71
2023/04/17 07:18:50;;;;;;;13.05;6.57;;;;;;;;;;4936380;29;20416;-71
2023/04/17 07:21:17;;;;;;;12.55;7.70;;;;;;;;;;4936819;29;20463;-71
2023/04/17 07:23:43;;;;;;;14.80;7.53;;;;;;;;;;4936143;29;20054;-71
2023/04/17 07:26:10;;;;;;;10.15;7.07;;;;;;;;;;4936390;29;20087;-71
2023/04/17 07:28:37;;;;;;;15.25;7.40;;;;;;;;;;4935871;29;20079;-71
2023/04/17 07:31:07;;;;;;;9.85;6.68;;;;;;;;;;4935778;29;20055;-72
2023/04/17 07:33:37;;;;;;;11.00;6.70;;;;;;;;;;4934162;29;20098;-71
2023/04/17 07:36:08;;;;;;;11.43;7.30;;;;;;;;;;4925328;29;20051;-71
2023/04/17 07:38:34;;;;;;;11.73;7.93;;;;;;;;;;4936086;29;20135;-71
2023/04/17 07:41:01;;;;;;;11.48;7.90;;;;;;;;;;4935871;29;20083;-71
2023/04/17 07:43:27;;;;;;;13.27;8.05;;;;;;;;;;4924351;29;20408;-71
2023/04/17 07:45:54;;;;;;;11.30;8.55;;;;;;;;;;4934137;29;20074;-71
2023/04/17 07:48:21;;;;;;;14.57;9.85;;;;;;;;;;4934317;29;20138;-72
2023/04/17 07:50:48;;;;;;;13.80;9.48;;;;;;;;;;4935643;29;20135;-71
2023/04/17 07:53:14;;;;;;;14.10;9.93;;;;;;;;;;4935523;29;20139;-72
2023/04/17 07:55:41;;;;;;;10.88;9.38;;;;;;;;;;4930656;29;20052;-71
2023/04/17 07:58:10;;;;;;;11.48;9.55;;;;;;;;;;4921043;29;20047;-71
2023/04/17 08:00:37;;;;;;;10.48;8.15;;;;;;;;;;4934225;29;20043;-72
2023/04/17 08:03:03;;;;;;;10.00;8.43;;;;;;;;;;4935599;29;20476;-72
2023/04/17 08:05:30;;;;;;;10.90;8.33;;;;;;;;;;4935413;29;20055;-71
2023/04/17 08:07:59;;;;;;;10.80;9.17;;;;;;;;;;4935399;29;20055;-71
2023/04/17 08:10:26;;;;;;;10.55;8.45;;;;;;;;;;4934984;29;20730;-72
2023/04/17 08:12:53;;;;;;;9.60;8.68;;;;;;;;;;4935337;29;20080;-72
2023/04/17 08:15:20;;;;;;;13.88;8.48;;;;;;;;;;4935223;29;20415;-71
2023/04/17 08:17:47;;;;;;;13.05;8.07;;;;;;;;;;4935183;29;20044;-72
2023/04/17 08:20:13;;;;;;;9.68;7.88;;;;;;;;;;4935370;29;20456;-72
2023/04/17 08:22:41;;;;;;;8.55;6.93;;;;;;;;;;4929949;29;20056;-72
2023/04/17 08:25:08;;;;;;;6.47;5.85;;;;;;;;;;4934617;29;20548;-71
2023/04/17 08:27:39;;;;;;;6.35;5.38;;;;;;;;;;4934748;29;20051;-71
2023/04/17 08:30:06;;;;;;;5.70;5.20;;;;;;;;;;4934454;29;20138;-71
2023/04/17 08:32:38;;;;;;;5.20;4.70;;;;;;;;;;4934380;29;20487;-72
2023/04/17 08:35:05;;;;;;;6.53;5.10;;;;;;;;;;4934626;29;20412;-71
2023/04/17 08:37:33;;;;;;;6.72;4.97;;;;;;;;;;4934434;29;20050;-65
2023/04/17 08:40:00;;;;;;;6.68;4.80;;;;;;;;;;4934593;29;20051;-72
2023/04/17 08:42:27;;;;;;;4.93;4.43;;;;;;;;;;4934300;29;20055;-71
2023/04/17 08:44:57;;;;;;;5.38;4.75;;;;;;;;;;4934174;29;20081;-72
2023/04/17 08:47:24;;;;;;;5.40;4.88;;;;;;;;;;4934515;29;20056;-72
2023/04/17 08:49:50;;;;;;;5.72;5.22;;;;;;;;;;4934053;29;20488;-71
2023/04/17 08:52:17;;;;;;;5.72;5.07;;;;;;;;;;4934520;29;20050;-71
2023/04/17 08:54:43;;;;;;;5.47;4.47;;;;;;;;;;4934377;29;20162;-71
2023/04/17 08:57:10;;;;;;;4.57;4.17;;;;;;;;;;4934046;29;20130;-71
2023/04/17 08:59:36;;;;;;;6.47;5.03;;;;;;;;;;4933588;29;20131;-72
2023/04/17 09:02:04;;;;;;;4.35;3.95;;;;;;;;;;4934023;29;20052;-71
2023/04/17 09:04:30;;;;;;;;;;;;;;;;;;4923804;29;20060;-70
2023/04/17 09:06:57;;;;;;;5.25;4.53;;;;;;;;;;4930082;29;20005;-72
2023/04/17 09:09:24;;;;;;;5.72;4.60;;;;;;;;;;4934205;29;20408;-70
2023/04/17 09:12:11;;;;;;;5.35;4.47;;;;;;;;;;4933872;29;20140;-70
2023/04/17 09:14:38;;;;;;;4.55;4.15;;;;;;;;;;4932808;29;20103;-71
2023/04/17 09:17:04;;;;;;;4.70;4.30;;;;;;;;;;4934313;29;20451;-70
2023/04/17 09:19:31;;;;;;;6.22;4.50;;;;;;;;;;4934343;29;20413;-71
2023/04/17 09:22:16;;;;;;;4.75;4.35;;;;;;;;;;4932126;29;20146;-71
2023/04/17 09:24:43;;;;;;;6.38;4.50;;;;;;;;;;4934013;29;20586;-70
2023/04/17 09:27:10;;;;;;;;;;;;;;;;;;4934575;29;20170;-70
2023/04/17 09:29:53;;;;;;;5.10;4.27;;;;;;;;;;4934205;29;19926;-71
2023/04/17 09:32:20;;;;;;;4.10;3.70;;;;;;;;;;4934320;29;20151;-71
2023/04/17 09:34:46;;;;;;;4.78;4.15;;;;;;;;;;4923529;29;20055;-69
2023/04/17 09:37:13;;;;;;;7.47;4.30;;;;;;;;;;4918559;29;20103;-71
2023/04/17 09:39:53;;;;;;;4.50;4.10;;;;;;;;;;4934192;29;20217;-72
2023/04/17 09:42:19;;;;;;;4.65;3.95;;;;;;;;;;4932635;29;20495;-71
2023/04/17 09:44:47;;;;;;;4.70;4.30;;;;;;;;;;4932540;29;20047;-72
2023/04/17 09:47:14;;;;;;;4.55;4.20;;;;;;;;;;4933225;29;20048;-72
2023/04/17 09:49:54;;;;;;;4.57;4.05;;;;;;;;;;4933855;29;20138;-71
2023/04/17 09:52:25;;;;;;;4.15;3.75;;;;;;;;;;4934303;29;20103;-71
2023/04/17 09:54:52;;;;;;;4.53;4.13;;;;;;;;;;4933683;29;20047;-72
2023/04/17 09:57:19;;;;;;;4.28;3.78;;;;;;;;;;4934215;29;20051;-71
2023/04/17 09:59:49;;;;;;;4.72;3.90;;;;;;;;;;4933948;29;20059;-71
2023/04/17 10:02:16;;;;;;;4.45;4.05;;;;;;;;;;4934004;29;20083;-72
2023/04/17 10:04:44;;;;;;;5.82;4.03;;;;;;;;;;4933685;29;20059;-72
2023/04/17 10:07:12;;;;;;;4.78;3.30;;;;;;;;;;4933986;29;20567;-72
2023/04/17 10:09:40;;;;;;;4.15;3.15;;;;;;;;;;4933904;29;20587;-72
2023/04/17 10:12:12;;;;;;;3.13;2.83;;;;;;;;;;4936345;29;20044;-72
2023/04/17 10:14:41;;;;;;;4.30;2.83;;;;;;;;;;4937818;29;20048;-72
2023/04/17 10:17:40;;;;;;;3.72;2.83;;;;;;;;;;4936368;29;20052;-71
2023/04/17 10:20:19;;;;;;;2.88;2.58;;;;;;;;;;4897263;29;20120;-71
2023/04/17 10:22:48;;;;;;;3.38;2.70;;;;;;;;;;4937295;29;20047;-72
2023/04/17 10:25:14;;;;;;;3.08;2.88;;;;;;;;;;4935965;29;20549;-71
2023/04/17 10:27:41;;;;;;;3.30;3.00;;;;;;;;;;4937422;29;20138;-72
2023/04/17 10:30:09;;;;;;;3.78;3.00;;;;;;;;;;4936907;29;20087;-71
2023/04/17 10:32:35;;;;;;;3.90;3.10;;;;;;;;;;4937016;29;20079;-72
2023/04/17 10:35:14;;;;;;;3.45;3.05;;;;;;;;;;4937374;29;20051;-71
2023/04/17 10:37:47;;;;;;;3.45;2.38;;;;;;;;;;4936909;29;20090;-71
2023/04/17 10:40:19;;;;;;;2.95;2.33;;;;;;;;;;4937313;29;20482;-71
2023/04/17 10:43:22;;;;;;;2.58;2.45;;;;;;;;;;4929400;29;20433;-71
2023/04/17 10:46:04;;;;;;;3.33;2.70;;;;;;;;;;4933271;29;20465;-72
2023/04/17 10:48:39;;;;;;;2.70;2.50;;;;;;;;;;4936872;29;20510;-72
2023/04/17 10:51:27;;;;;;;3.08;2.63;;;;;;;;;;4936748;29;20138;-72
2023/04/17 10:53:54;;;;;;;2.85;2.58;;;;;;;;;;4936755;29;20507;-72
2023/04/17 10:56:37;;;;;;;2.53;2.33;;;;;;;;;;4936967;29;20150;-72
2023/04/17 10:59:05;;;;;;;2.50;2.30;;;;;;;;;;4936724;29;20091;-72
2023/04/17 11:01:31;;;;;;;;;;;;;;;;;;4937285;29;20502;-72
2023/04/17 11:04:00;;;;;;;3.53;1.70;;;;;;;;;;4936561;29;20383;-72
2023/04/17 11:06:28;;;;;;;2.13;1.92;;;;;;;;;;4936293;29;20540;-72
2023/04/17 11:08:56;;;;;;;2.60;2.40;;;;;;;;;;4936682;29;20047;-72
2023/04/17 11:11:23;;;;;;;2.25;2.05;;;;;;;;;;4936654;29;20047;-72
2023/04/17 11:14:09;;;;;;;3.17;2.87;;;;;;;;;;4934791;29;20135;-72
2023/04/17 11:16:40;;;;;;;2.97;2.67;;;;;;;;;;4935844;29;20126;-72
2023/04/17 11:19:23;;;;;;;2.47;2.28;;;;;;;;;;4925841;29;20111;-72
2023/04/17 11:21:53;;;;;;;2.13;1.92;;;;;;;;;;4931053;29;20103;-71
2023/04/17 11:24:27;;;;;;;1.95;1.85;;;;;;;;;;4935028;29;20059;-72
2023/04/17 11:26:55;;;;;;;2.67;2.20;;;;;;;;;;4924877;29;20059;-73
2023/04/17 11:29:22;;;;;;;2.42;1.92;;;;;;;;;;4935527;29;20087;-72
2023/04/17 11:31:50;;;;;;;3.70;2.20;;;;;;;;;;4935526;29;20102;-71
2023/04/17 11:34:17;;;;;;;2.80;2.45;;;;;;;;;;4935491;29;20088;-72
2023/04/17 11:36:57;;;;;;;3.10;2.53;;;;;;;;;;4935604;29;20127;-71
2023/04/17 11:39:25;;;;;;;3.92;2.60;;;;;;;;;;4935558;29;20314;-72
2023/04/17 11:41:52;;;;;;;3.80;2.60;;;;;;;;;;4935574;29;20107;-72
2023/04/17 11:44:21;;;;;;;2.80;2.60;;;;;;;;;;4935573;29;20483;-72
2023/04/17 11:46:49;;;;;;;2.88;2.50;;;;;;;;;;4935316;29;20138;-71
2023/04/17 11:49:15;;;;;;;;;;;;;;;;;;4935725;29;20058;-71
2023/04/17 11:51:45;;;;;;;5.60;2.67;;;;;;;;;;4924930;29;19923;-71
2023/04/17 11:54:19;;;;;;;2.80;2.30;;;;;;;;;;4914166;29;20055;-71
2023/04/17 11:57:01;;;;;;;2.33;2.13;;;;;;;;;;4927556;29;20048;-71
2023/04/17 11:59:32;;;;;;;4.60;2.20;;;;;;;;;;4935237;29;20503;-70
2023/04/17 12:02:00;;;;;;;4.78;1.90;;;;;;;;;;4935205;29;20062;-71
2023/04/17 12:04:28;;;;;;;2.42;2.22;;;;;;;;;;4935126;29;20138;-71
2023/04/17 12:06:55;;;;;;;2.83;2.08;;;;;;;;;;4935157;29;20073;-72
2023/04/17 12:09:30;;;;;;;3.28;2.22;;;;;;;;;;4935115;29;20059;-71
2023/04/17 12:12:01;;;;;;;2.83;2.33;;;;;;;;;;4935179;29;20482;-71
2023/04/17 12:14:28;;;;;;;3.95;2.00;;;;;;;;;;4934806;29;20416;-71
2023/04/17 12:16:54;;;;;;;3.75;2.55;;;;;;;;;;4934919;29;20039;-71
2023/04/17 12:19:20;;;;;;;7.07;2.67;;;;;;;;;;4934583;29;20512;-70
2023/04/17 12:21:47;;;;;;;2.72;2.40;;;;;;;;;;4917914;29;20089;-72
2023/04/17 12:24:13;;;;;;;4.40;2.30;;;;;;;;;;4915726;29;20059;-72
2023/04/17 12:26:46;;;;;;;2.33;2.13;;;;;;;;;;4920061;29;20139;-72
2023/04/17 12:29:13;;;;;;;4.70;2.03;;;;;;;;;;4934989;29;20142;-71
2023/04/17 12:31:40;;;;;;;4.13;1.92;;;;;;;;;;4934803;29;20043;-72
2023/04/17 12:34:06;;;;;;;4.67;1.90;;;;;;;;;;4933367;29;20075;-71
2023/04/17 12:36:33;;;;;;;6.15;2.17;;;;;;;;;;4934481;29;20329;-72
2023/04/17 12:39:00;;;;;;;3.08;1.98;;;;;;;;;;4934705;29;20056;-72
2023/04/17 12:41:26;;;;;;;3.88;1.65;;;;;;;;;;4934756;29;20051;-71
2023/04/17 12:43:53;;;;;;;4.40;2.40;;;;;;;;;;4934438;29;20170;-71
2023/04/17 12:46:20;;;;;;;3.37;2.27;;;;;;;;;;4934746;29;20143;-72
2023/04/17 12:48:46;;;;;;;3.33;1.85;;;;;;;;;;4934813;29;20917;-72
2023/04/17 12:51:13;;;;;;;5.00;2.00;;;;;;;;;;4934177;29;20165;-73
2023/04/17 12:53:39;;;;;;;8.77;2.47;;;;;;;;;;4932357;29;20355;-71
2023/04/17 12:56:06;;;;;;;3.60;2.20;;;;;;;;;;4918461;29;20058;-72
2023/04/17 12:58:32;;;;;;;3.95;1.85;;;;;;;;;;4925358;29;20047;-71
2023/04/17 13:00:59;;;;;;;3.90;2.03;;;;;;;;;;4933987;29;20052;-71
2023/04/17 13:03:25;;;;;;;4.55;2.15;;;;;;;;;;4932744;29;20060;-71
2023/04/17 13:05:52;;;;;;;3.97;1.83;;;;;;;;;;4933908;29;20056;-72
2023/04/17 13:08:19;;;;;;;4.75;1.95;;;;;;;;;;4933949;29;20130;-72
2023/04/17 13:10:45;;;;;;;5.38;2.38;;;;;;;;;;4932502;29;20048;-71
2023/04/17 13:13:12;;;;;;;4.32;2.22;;;;;;;;;;4934230;29;20070;-71
2023/04/17 13:15:38;;;;;;;4.80;2.08;;;;;;;;;;4932573;29;20479;-71
2023/04/17 13:18:04;;;;;;;5.97;2.85;;;;;;;;;;4933913;29;20058;-71
2023/04/17 13:20:31;;;;;;;6.27;3.17;;;;;;;;;;4933765;29;20103;-71
2023/04/17 13:22:57;;;;;;;5.28;3.05;;;;;;;;;;4933350;29;20044;-72
2023/04/17 13:25:24;;;;;;;6.57;3.57;;;;;;;;;;4932475;29;20051;-72
2023/04/17 13:27:51;;;;;;;8.30;4.10;;;;;;;;;;4919581;29;20122;-72
2023/04/17 13:30:17;;;;;;;6.07;4.00;;;;;;;;;;4934019;29;20054;-72
2023/04/17 13:32:43;;;;;;;5.10;3.75;;;;;;;;;;4933906;29;20079;-72
2023/04/17 13:35:12;;;;;;;8.80;5.32;;;;;;;;;;4934475;29;20058;-72
2023/04/17 13:37:41;;;;;;;10.88;5.63;;;;;;;;;;4934254;29;20130;-72
2023/04/17 13:40:10;;;;;;;6.05;5.45;;;;;;;;;;4932982;29;20134;-72
2023/04/17 13:42:37;;;;;;;6.15;4.90;;;;;;;;;;4934371;29;20487;-72
2023/04/17 13:45:04;;;;;;;7.32;4.05;;;;;;;;;;4934255;29;20123;-72
2023/04/17 13:47:30;;;;;;;6.43;4.60;;;;;;;;;;4937030;29;20504;-72
2023/04/17 13:49:56;;;;;;;7.70;4.82;;;;;;;;;;4937997;29;20056;-72
2023/04/17 13:52:23;;;;;;;5.50;4.10;;;;;;;;;;4938294;29;20130;-72
2023/04/17 13:54:49;;;;;;;6.03;4.13;;;;;;;;;;4937831;29;20058;-72
2023/04/17 13:57:17;;;;;;;5.80;3.95;;;;;;;;;;4937740;29;20048;-72
2023/04/17 13:59:43;;;;;;;5.93;3.65;;;;;;;;;;4937656;29;20048;-72
2023/04/17 14:02:10;;;;;;;5.72;3.47;;;;;;;;;;4937971;29;20058;-72
2023/04/17 14:04:37;;;;;;;7.70;3.95;;;;;;;;;;4936137;29;20497;-72
2023/04/17 14:07:04;;;;;;;7.83;4.20;;;;;;;;;;4937812;29;20059;-72
2023/04/17 14:09:30;;;;;;;5.20;3.38;;;;;;;;;;4937871;29;20433;-73
2023/04/17 14:11:57;;;;;;;6.18;5.57;;;;;;;;;;4937366;29;20047;-72
2023/04/17 14:14:23;;;;;;;5.15;3.60;;;;;;;;;;4937784;29;20087;-72
2023/04/17 14:16:50;;;;;;;7.63;3.60;;;;;;;;;;4937613;29;20051;-72
2023/04/17 14:19:16;;;;;;;3.80;3.30;;;;;;;;;;4937415;29;20435;-73
2023/04/17 14:21:43;;;;;;;5.93;3.05;;;;;;;;;;4937552;29;20059;-73
2023/04/17 14:24:09;;;;;;;6.50;3.58;;;;;;;;;;4937042;29;20055;-72
2023/04/17 14:26:36;;;;;;;4.63;3.15;;;;;;;;;;4937321;29;20047;-73
2023/04/17 14:29:03;;;;;;;4.80;2.90;;;;;;;;;;4937494;29;20134;-72
2023/04/17 14:31:30;;;;;;;4.68;3.63;;;;;;;;;;4937092;29;20083;-72
2023/04/17 14:33:56;;;;;;;5.63;3.88;;;;;;;;;;4937139;29;20048;-72
2023/04/17 14:36:23;;;;;;;5.82;3.85;;;;;;;;;;4937052;29;20491;-72
2023/04/17 14:38:50;;;;;;;4.25;3.85;;;;;;;;;;4936877;29;20062;-72
2023/04/17 14:41:17;;;;;;;5.35;4.38;;;;;;;;;;4937307;29;20218;-72
2023/04/17 14:43:43;;;;;;;5.85;4.15;;;;;;;;;;4936903;29;20578;-72
2023/04/17 14:46:10;;;;;;;4.40;4.00;;;;;;;;;;4936816;29;20151;-72